createdAt,value
2022-11-23T00:04:41.318Z,12.30
2022-11-23T00:09:43.627Z,12.60
2022-11-23T00:14:45.818Z,12.50
2022-11-23T00:19:47.957Z,12.50
2022-11-23T00:24:50.355Z,12.50
2022-11-23T00:29:52.509Z,12.50
2022-11-23T00:34:55.198Z,12.40
2022-11-23T00:39:58.361Z,12.50
2022-11-23T00:45:00.520Z,12.60
2022-11-23T00:50:03.009Z,12.70
2022-11-23T00:55:05.763Z,12.80
2022-11-23T01:00:08.685Z,12.80
2022-11-23T01:05:10.889Z,12.40
2022-11-23T01:10:13.205Z,12.70
2022-11-23T01:15:15.885Z,12.40
2022-11-23T01:20:18.156Z,12.40
2022-11-23T01:25:20.310Z,12.30
2022-11-23T01:30:22.348Z,12.20
2022-11-23T01:35:26.806Z,12.00
2022-11-23T01:40:28.884Z,12.00
2022-11-23T01:50:47.193Z,12.40
2022-11-23T01:55:50.876Z,12.40
2022-11-23T02:00:53.155Z,12.50
2022-11-23T02:06:01.714Z,12.60
2022-11-23T02:11:04.034Z,12.60
2022-11-23T02:16:06.409Z,12.80
2022-11-23T02:21:08.618Z,12.70
2022-11-23T02:26:17.970Z,12.50
2022-11-23T02:31:20.182Z,12.70
2022-11-23T02:41:43.710Z,12.80
2022-11-23T02:46:46.290Z,13.00
2022-11-23T02:51:50.409Z,13.20
2022-11-23T02:56:52.691Z,13.20
2022-11-23T03:01:54.882Z,13.00
2022-11-23T03:06:57.229Z,13.10
2022-11-23T03:11:59.678Z,13.00
2022-11-23T03:17:03.829Z,12.80
2022-11-23T03:22:11.414Z,12.80
2022-11-23T03:27:13.930Z,12.90
2022-11-23T03:32:17.163Z,13.00
2022-11-23T03:37:22.875Z,13.00
2022-11-23T03:42:25.159Z,13.10
2022-11-23T03:47:27.373Z,13.00
2022-11-23T03:52:29.533Z,13.00
2022-11-23T03:57:31.853Z,12.90
2022-11-23T04:02:36.473Z,12.90
2022-11-23T04:07:46.117Z,12.80
2022-11-23T04:12:52.799Z,13.10
2022-11-23T04:17:55.695Z,13.00
2022-11-23T04:22:58.936Z,12.90
2022-11-23T04:28:03.316Z,12.90
2022-11-23T04:33:05.627Z,12.80
2022-11-23T04:38:08.287Z,12.70
2022-11-23T04:43:12.160Z,13.00
2022-11-23T04:48:15.245Z,12.70
2022-11-23T04:53:18.535Z,12.70
2022-11-23T04:58:23.374Z,12.70
2022-11-23T05:03:31.469Z,12.50
2022-11-23T05:08:35.736Z,12.40
2022-11-23T05:13:57.797Z,12.60
2022-11-23T05:19:00.258Z,12.50
2022-11-23T05:24:02.635Z,12.50
2022-11-23T05:29:06.037Z,12.60
2022-11-23T05:34:08.250Z,12.50
2022-11-23T05:39:20.084Z,12.70
2022-11-23T05:44:26.334Z,12.50
2022-11-23T05:49:28.959Z,12.60
2022-11-23T05:54:31.582Z,12.70
2022-11-23T05:59:40.637Z,12.80
2022-11-23T06:04:46.017Z,12.80
2022-11-23T06:09:54.062Z,12.60
2022-11-23T06:14:56.622Z,12.70
2022-11-23T06:20:00.809Z,12.80
2022-11-23T06:25:03.261Z,12.80
2022-11-23T06:30:26.411Z,12.90
2022-11-23T06:35:31.031Z,12.70
2022-11-23T06:40:34.316Z,12.60
2022-11-23T06:45:37.806Z,12.80
2022-11-23T06:50:43.995Z,12.90
2022-11-23T06:55:46.641Z,13.00
2022-11-23T07:00:52.010Z,13.00
2022-11-23T07:05:54.949Z,13.30
2022-11-23T07:11:02.643Z,13.20
2022-11-23T07:16:05.961Z,13.10
2022-11-23T07:21:08.461Z,13.10
2022-11-23T07:26:11.442Z,13.10
2022-11-23T07:31:16.199Z,13.20
2022-11-23T07:36:18.442Z,13.20
2022-11-23T07:41:21.660Z,13.30
2022-11-23T07:46:40.970Z,13.40
2022-11-23T07:51:43.095Z,13.60
2022-11-23T07:56:45.371Z,13.60
2022-11-23T08:01:51.184Z,13.60
2022-11-23T08:06:55.406Z,13.60
2022-11-23T08:11:57.608Z,13.70
2022-11-23T08:16:59.762Z,13.90
2022-11-23T08:22:02.173Z,14.00
2022-11-23T08:27:04.760Z,14.10
2022-11-23T08:32:06.906Z,14.30
2022-11-23T08:37:09.027Z,14.50
2022-11-23T08:42:11.255Z,14.50
2022-11-23T08:47:13.469Z,14.40
2022-11-23T08:52:15.594Z,14.20
2022-11-23T08:57:17.847Z,14.40
2022-11-23T09:02:19.992Z,14.30
2022-11-23T09:07:22.189Z,14.30
2022-11-23T09:12:24.372Z,14.40
2022-11-23T09:17:26.613Z,14.30
2022-11-23T09:22:28.872Z,14.10
2022-11-23T09:27:31.010Z,14.10
2022-11-23T09:32:33.272Z,14.00
2022-11-23T09:37:35.448Z,14.00
2022-11-23T09:53:06.062Z,14.10
2022-11-23T09:58:14.951Z,13.90
2022-11-23T10:03:18.661Z,13.90
2022-11-23T10:08:47.575Z,14.00
2022-11-23T10:14:13.049Z,13.90
2022-11-23T10:24:48.048Z,14.00
2022-11-23T10:29:52.647Z,14.00
2022-11-23T10:45:31.415Z,14.30
2022-11-23T10:50:37.976Z,14.40
2022-11-23T10:55:53.015Z,14.60
2022-11-23T11:01:01.185Z,14.70
2022-11-23T11:06:09.152Z,14.60
2022-11-23T11:11:39.686Z,14.70
2022-11-23T11:16:49.861Z,14.70
2022-11-23T11:21:52.050Z,14.80
2022-11-23T11:27:00.382Z,15.00
2022-11-23T11:32:11.671Z,14.90
2022-11-23T15:36:38.979Z,14.30
2022-11-23T15:41:41.550Z,14.10
2022-11-23T15:46:43.920Z,14.20
2022-11-23T15:51:46.576Z,14.30
2022-11-23T15:56:51.590Z,14.40
2022-11-23T16:01:54.645Z,14.50
2022-11-23T16:06:57.339Z,14.60
2022-11-23T16:11:59.616Z,14.70
2022-11-23T16:17:24.976Z,14.70
2022-11-23T16:22:37.985Z,14.60
2022-11-23T16:27:40.767Z,14.70
2022-11-23T16:32:42.966Z,14.80
2022-11-23T16:37:46.222Z,14.80
2022-11-23T16:42:53.284Z,14.80
2022-11-23T16:53:14.585Z,14.80
2022-11-23T16:58:17.354Z,14.50
2022-11-23T17:03:21.571Z,14.70
2022-11-23T17:08:24.282Z,14.80
2022-11-23T17:13:29.739Z,14.80
2022-11-23T17:18:33.009Z,14.90
2022-11-23T17:23:35.694Z,14.90
2022-11-23T17:28:37.948Z,14.80
2022-11-23T17:33:40.436Z,14.70
2022-11-23T17:38:47.115Z,14.70
2022-11-23T17:43:49.570Z,14.80
2022-11-23T17:48:57.389Z,14.90
2022-11-23T17:53:59.962Z,14.90
2022-11-23T17:59:04.356Z,15.00
2022-11-23T18:04:06.945Z,14.90
2022-11-23T18:09:09.586Z,14.90
2022-11-23T18:14:11.841Z,14.90
2022-11-23T18:19:15.099Z,14.80
2022-11-23T18:24:17.710Z,14.80
2022-11-23T18:29:20.144Z,14.60
2022-11-23T18:34:22.412Z,14.70
2022-11-23T18:39:24.706Z,14.80
2022-11-23T18:44:26.897Z,14.80
2022-11-23T18:49:29.111Z,14.60
2022-11-23T18:54:31.398Z,14.60
2022-11-23T19:00:03.968Z,14.70
2022-11-23T19:04:55.985Z,14.70
2022-11-23T19:09:58.191Z,14.70
2022-11-23T19:15:00.463Z,14.80
2022-11-23T19:20:04.017Z,14.80
2022-11-23T19:25:06.986Z,14.80
2022-11-23T19:30:10.090Z,14.80
2022-11-23T19:35:12.471Z,14.90
2022-11-23T19:40:15.140Z,14.90
2022-11-23T19:45:17.454Z,14.80
2022-11-23T19:50:19.666Z,14.90
2022-11-23T19:55:21.975Z,14.80
2022-11-23T20:00:24.303Z,14.90
2022-11-23T20:05:27.385Z,14.90
2022-11-23T20:10:29.660Z,14.90
2022-11-23T20:15:32.916Z,14.80
2022-11-23T20:20:39.657Z,14.80
2022-11-23T20:25:42.615Z,14.80
2022-11-23T20:30:44.884Z,14.80
2022-11-23T20:35:48.355Z,14.80
2022-11-23T20:40:50.688Z,14.80
2022-11-23T20:45:52.921Z,14.80
2022-11-23T20:50:55.143Z,14.90
2022-11-23T20:56:13.720Z,14.80
2022-11-23T21:01:18.172Z,14.80
2022-11-23T21:06:21.425Z,14.90
2022-11-23T21:11:47.557Z,14.90
2022-11-23T21:16:55.238Z,14.90
2022-11-23T21:21:58.881Z,14.80
2022-11-23T21:27:01.967Z,14.80
2022-11-23T21:32:04.521Z,14.70
2022-11-23T21:37:06.762Z,14.70
2022-11-23T21:42:09.280Z,14.70
2022-11-23T21:47:11.815Z,14.60
2022-11-23T21:52:14.136Z,14.50
2022-11-23T21:57:16.383Z,14.50
2022-11-23T22:02:19.099Z,14.40
2022-11-23T22:07:21.534Z,14.40
2022-11-23T22:12:23.962Z,14.30
2022-11-23T22:17:26.305Z,14.30
2022-11-23T22:22:28.518Z,14.20
2022-11-23T22:27:30.742Z,14.20
2022-11-23T22:32:32.947Z,14.20
2022-11-23T22:37:35.150Z,14.10
2022-11-23T22:42:37.494Z,14.10
2022-11-23T22:47:39.710Z,14.10
2022-11-23T22:52:41.964Z,14.10
2022-11-23T22:57:44.202Z,14.10
2022-11-23T23:02:47.137Z,14.00
2022-11-23T23:07:49.370Z,14.00
2022-11-23T23:12:51.872Z,13.90
2022-11-23T23:17:54.165Z,13.80
2022-11-23T23:22:56.380Z,13.80
2022-11-23T23:27:58.733Z,13.70
2022-11-23T23:33:01.322Z,13.70
2022-11-23T23:38:03.553Z,13.70
2022-11-23T23:43:05.813Z,13.70
2022-11-23T23:48:08.269Z,13.70
2022-11-23T23:53:10.517Z,13.60
2022-11-23T23:58:12.854Z,13.60
